• Join FlightAware (Why Join?)
  • Login
  • US Flag 
05:55PM EDT


 

Airport Tracker/Info


-or-


 

Live Flight TrackerFlight Track Log ✈ N680AN ✈ 04-May-2013 ✈ KMIA - TJSJ / SJU

Flight Track Log - Related Links

Times and Time Zones

All times are in EDT time to prevent confusion due to time zone crossing. See the N680AN flight status page for this flight to view local times or setup timezone preferences in your user account.

Time Position Orientation Groundspeed Altitude Reporting Facility
EDT Latitude Longitude Course Direction KTS MPH feet Rate Location/Type
07:52AM 25.7972 -80.3092 104° East 171 197 800  Level Miami Center
07:52AM 25.7942 -80.3575 266° West 184 212 2,800 2,280 Climbing Miami Center
07:53AM 25.7886 -80.4128 264° West 251 289 4,800 2,460 Climbing Miami Center
07:54AM 25.6787 -79.8876 104° East  Level FlightAware Approximate
07:54AM 25.7858 -80.4381 263° West 258 297 5,800  Level Miami Center
07:54AM 25.7372 -80.4619 204° Southwest 283 326 7,000 1,080 Climbing Miami Center
07:55AM 25.6467 -79.7536 105° East  Level FlightAware Approximate
07:55AM 25.7250 -80.4544 151° Southeast 283 326 6,900  Level Miami Center
07:55AM 25.6603 -80.4481 175° South 290 334 8,800 2,880 Climbing Miami Center
07:56AM 25.6260 -79.6180 104° East  Level FlightAware Approximate
07:56AM 25.6292 -80.4447 174° South 291 335 9,800  Level Miami Center
07:56AM 25.5822 -80.3950 136° Southeast 340 391 11,200 1,380 Climbing Miami Center
07:57AM 25.5950 -79.4836 104° East  Level FlightAware Approximate
07:57AM 25.5764 -80.3719 106° East 348 400 11,200  Level Miami Center
07:58AM 25.5917 -80.2639 81° East 421 484 13,100 2,340 Climbing Miami Center
07:59AM 25.6072 -80.1308 83° East 395 455 15,900 2,580 Climbing Miami Center
08:00AM 25.6203 -80.0044 83° East 395 455 18,300 2,160 Climbing Miami Center
08:01AM 25.6314 -79.8711 85° East 415 478 20,300 1,920 Climbing Miami Center
08:02AM 25.6447 -79.7356 84° East 427 491 22,200 1,800 Climbing Miami Center
08:03AM 25.6244 -79.5922 99° East 456 525 24,000 1,740 Climbing Miami Center
08:04AM 25.5811 -79.4506 109° East 468 539 25,700 1,680 Climbing Miami Center
08:05AM 25.5206 -79.3158 116° Southeast 475 547 27,400 1,620 Climbing Miami Center
08:06AM 25.4581 -79.1811 117° Southeast 487 560 29,000 1,320 Climbing Miami Center
08:07AM 25.3994 -79.0581 118° Southeast 502 578 30,100 960 Climbing Miami Center
08:08AM 25.3283 -78.9119 118° Southeast 496 571 31,000 420 Climbing Miami Center
08:09AM 25.2611 -78.7775 119° Southeast 496 571 31,000  Level Miami Center
08:10AM 25.1981 -78.6389 117° Southeast 496 571 31,000  Level Miami Center
08:11AM 25.1408 -78.5278 120° Southeast 502 578 31,000  Level Miami Center
08:12AM 25.0694 -78.3800 118° Southeast 502 578 31,000  Level Miami Center
08:13AM 25.0017 -78.2414 118° Southeast 507 583 31,000  Level Miami Center
08:14AM 24.9339 -78.1033 118° Southeast 507 583 31,000  Level Miami Center
08:15AM 24.8661 -77.9650 118° Southeast 507 583 31,000  Level Miami Center
08:16AM 24.7981 -77.8272 119° Southeast 507 583 31,000  Level Miami Center
08:17AM 24.7217 -77.6756 119° Southeast 512 589 31,000  Level Miami Center
08:18AM 24.6533 -77.5381 119° Southeast 512 589 31,000  Level Miami Center
08:19AM 24.5872 -77.4006 118° Southeast 512 589 31,000  Level Miami Center
08:20AM 24.5206 -77.2608 118° Southeast 507 583 31,000  Level Miami Center
08:21AM 24.4519 -77.1236 119° Southeast 507 583 31,000  Level Miami Center
08:22AM 24.3831 -76.9867 119° Southeast 507 583 31,000  Level Miami Center
08:23AM 24.3164 -76.8497 118° Southeast 507 583 31,000  Level Miami Center
08:24AM 24.2472 -76.7153 119° Southeast 507 583 31,000  Level Miami Center
08:25AM 24.1822 -76.5808 118° Southeast 507 583 31,000  Level Miami Center
08:26AM 24.1131 -76.4422 119° Southeast 507 583 31,000  Level Miami Center
08:27AM 24.0436 -76.3058 119° Southeast 507 583 31,000  Level Miami Center
08:28AM 23.9742 -76.1653 118° Southeast 513 590 31,000  Level Miami Center
08:29AM 23.9022 -76.0292 120° Southeast 513 590 31,000  Level Miami Center
08:30AM 23.8303 -75.8867 119° Southeast 519 597 31,000  Level Miami Center
08:31AM 23.7689 -75.7622 118° Southeast 524 603 31,000  Level Miami Center
08:32AM 23.6947 -75.6175 119° Southeast 524 603 31,000  Level Miami Center
08:33AM 23.6203 -75.4733 119° Southeast 530 610 31,000  Level Miami Center
08:34AM 23.5478 -75.3314 119° Southeast 535 616 31,000  Level Miami Center
08:35AM 23.4731 -75.1917 120° Southeast 535 616 31,000  Level Miami Center
08:36AM 23.4006 -75.0500 119° Southeast 535 616 31,000  Level Miami Center
08:37AM 23.3256 -74.9086 120° Southeast 535 616 31,000  Level Miami Center
08:38AM 23.2528 -74.7717 120° Southeast 535 616 31,000  Level Miami Center
08:39AM 23.1797 -74.6328 120° Southeast 523 602 31,000  Level Miami Center
08:40AM 23.1064 -74.4964 120° Southeast 523 602 31,000  Level Miami Center
08:41AM 23.0292 -74.3578 121° Southeast 523 602 31,000  Level Miami Center
08:42AM 22.9600 -74.2217 119° Southeast 523 602 31,000  Level Miami Center
08:43AM 22.8800 -74.0722 120° Southeast 523 602 31,000  Level Miami Center
08:44AM 22.8042 -73.9342 121° Southeast 523 602 31,000  Level Miami Center
08:45AM 22.7283 -73.7986 121° Southeast 523 602 31,000  Level Miami Center
08:46AM 22.6586 -73.6583 118° Southeast 523 602 31,000  Level Miami Center
08:47AM 22.5847 -73.5186 120° Southeast 523 602 31,000  Level Miami Center
08:48AM 22.5128 -73.3856 120° Southeast 523 602 31,000  Level Miami Center
08:49AM 22.4450 -73.2592 120° Southeast 518 596 31,000  Level Miami Center
08:50AM 22.3708 -73.1244 121° Southeast 523 602 31,000  Level Miami Center
08:51AM 22.2964 -72.9875 120° Southeast 523 602 31,000  Level Miami Center
08:52AM 22.2261 -72.8528 119° Southeast 523 602 31,000  Level Miami Center
08:53AM 22.1514 -72.7161 121° Southeast 523 602 31,000  Level Miami Center
08:54AM 22.0806 -72.5750 118° Southeast 523 602 31,000  Level Miami Center
08:55AM 22.0058 -72.4386 121° Southeast 523 602 31,000  Level Miami Center
08:56AM 21.9411 -72.2953 116° Southeast 523 602 31,000  Level Miami Center
08:57AM 21.8803 -72.1497 114° Southeast 528 608 31,000  Level Miami Center
08:58AM 21.8092 -72.0117 119° Southeast 523 602 31,000  Level Miami Center
08:59AM 21.7339 -71.8758 121° Southeast 523 602 31,000  Level Miami Center
09:00AM 21.6586 -71.7425 121° Southeast 529 609 31,000  Level Miami Center
09:01AM 21.5808 -71.6094 122° Southeast 524 603 31,000  Level Miami Center
09:02AM 21.5053 -71.4742 121° Southeast 524 603 31,000  Level Miami Center
09:03AM 21.4275 -71.3414 122° Southeast 524 603 31,000  Level Miami Center
09:04AM 21.3456 -71.2067 123° Southeast 531 611 31,000  Level Miami Center
09:05AM 21.2672 -71.0656 121° Southeast 543 625 31,000  Level Miami Center
09:06AM 21.1956 -70.9331 120° Southeast 536 617 31,000  Level Miami Center
09:07AM 21.1217 -70.8006 121° Southeast 525 604 31,000  Level Miami Center
09:08AM 21.0456 -70.6708 122° Southeast 520 598 31,000  Level Miami Center
09:09AM 20.9692 -70.5389 122° Southeast 520 598 31,000  Level Miami Center
09:10AM 20.8950 -70.4069 121° Southeast 520 598 31,000  Level Miami Center
09:11AM 20.8167 -70.2778 123° Southeast 520 598 31,000  Level Miami Center
09:12AM 20.7400 -70.1442 122° Southeast 520 598 31,000  Level Miami Center
09:13AM 20.6633 -70.0128 122° Southeast 520 598 31,000  Level Miami Center
09:14AM 20.5867 -69.8817 122° Southeast 520 598 31,000  Level Miami Center
09:15AM 20.5100 -69.7486 122° Southeast 520 598 31,000  Level Miami Center
09:16AM 20.4331 -69.6156 122° Southeast 520 598 31,000  Level Miami Center
09:17AM 20.3539 -69.4850 123° Southeast 525 604 31,000  Level Miami Center
09:18AM 20.2747 -69.3547 123° Southeast 525 604 31,000  Level Miami Center
09:19AM 20.1997 -69.2219 121° Southeast 525 604 31,000  Level Miami Center
09:20AM 20.1244 -69.0917 122° Southeast 525 604 31,000  Level Miami Center
09:21AM 20.0472 -68.9617 122° Southeast 519 597 31,000  Level Miami Center
09:22AM 19.9781 -68.8292 119° Southeast 519 597 31,000  Level Miami Center
09:23AM 19.9003 -68.6950 122° Southeast 519 597 31,000  Level Miami Center
09:24AM 19.8289 -68.5628 120° Southeast 519 597 31,000  Level Miami Center
09:25AM 19.7553 -68.4308 121° Southeast 519 597 31,000  Level Miami Center
09:25AM 19.7167 -68.3333 113° Southeast 510 587 31,000  Level San Juan Center
09:26AM 19.6333 -68.2000 124° Southeast 520 598 31,000  Level San Juan Center
09:27AM 19.5667 -68.0667 118° Southeast 510 587 31,000  Level San Juan Center
09:28AM 19.4833 -67.9333 124° Southeast 510 587 31,000 -540 Level San Juan Center
09:29AM 19.4167 -67.8167 121° Southeast 510 587 30,000 -1,500 Descending San Juan Center
09:30AM 19.3500 -67.6833 118° Southeast 500 575 28,000 -1,860 Descending San Juan Center
09:31AM 19.2667 -67.5667 127° Southeast 480 552 26,300 -1,860 Descending San Juan Center
09:32AM 19.2167 -67.4333 112° Southeast 470 541 24,300 -1,980 Descending San Juan Center
09:33AM 19.1500 -67.3167 121° Southeast 460 529 22,400 -1,980 Descending San Juan Center
09:34AM 19.0833 -67.2000 121° Southeast 460 529 20,400 -1,980 Descending San Juan Center
09:35AM 19.0167 -67.1000 125° Southeast 440 506 18,500 -1,980 Descending San Juan Center
09:36AM 18.9500 -66.9667 118° Southeast 420 483 16,500 -1,920 Descending San Juan Center
09:37AM 18.9000 -66.8667 118° Southeast 390 449 14,700 -1,800 Descending San Juan Center
09:38AM 18.8500 -66.7833 122° Southeast 380 437 13,000 -1,680 Descending San Juan Center
09:39AM 18.8000 -66.6833 118° Southeast 360 414 11,400 -1,260 Descending San Juan Center
09:40AM 18.7500 -66.6000 122° Southeast 330 380 10,500 -1,140 Descending San Juan Center
09:41AM 18.7000 -66.5167 122° Southeast 300 345 9,200 -1,440 Descending San Juan Center
09:42AM 18.6500 -66.4500 128° Southeast 300 345 7,700 -1,560 Descending San Juan Center
09:43AM 18.6000 -66.3833 128° Southeast 280 322 6,100 -1,500 Descending San Juan Center
09:44AM 18.5667 -66.3167 118° Southeast 270 311 4,700 -1,320 Descending San Juan Center
09:45AM 18.5333 -66.2500 118° Southeast 230 265 3,500 -900 Descending San Juan Center
09:46AM 18.5000 -66.2000 125° Southeast 230 265 2,900 -660 Descending San Juan Center
09:47AM 18.4667 -66.1500 125° Southeast 210 242 2,200 -720 Descending San Juan Center